Time;durP1;ratioP1;P1;durP2;ratioP2;P2;SDS_P1;SDS_P2;PMS_P1;PMS_P2;Temp;Humidity;BMP_temperature;BMP_pressure;BME280_temperature;BME280_humidity;BME280_pressure;Samples;Min_cycle;Max_cycle;Signal;HPM_P1;HPM_P2
2021/01/04 00:02:40;;;;;;;25.02;14.65;;;1.90;96.50;;;;;;5124921;27;27389;-54
2021/01/04 00:05:43;;;;;;;24.05;15.65;;;1.90;96.50;;;;;;5125158;27;27465;-55
2021/01/04 00:08:49;;;;;;;27.35;16.88;;;1.90;96.40;;;;;;5124152;27;27426;-56
2021/01/04 00:11:54;;;;;;;22.67;14.35;;;1.90;96.40;;;;;;5125240;27;27467;-53
2021/01/04 00:14:51;;;;;;;26.08;15.75;;;1.90;96.40;;;;;;5124748;27;27430;-55
2021/01/04 00:17:47;;;;;;;26.35;15.40;;;1.90;96.40;;;;;;5121586;27;27475;-49
2021/01/04 00:20:34;;;;;;;26.65;15.10;;;1.90;96.40;;;;;;5124064;27;27347;-55
2021/01/04 00:23:18;;;;;;;27.13;15.98;;;1.90;96.40;;;;;;5124007;27;27446;-52
2021/01/04 00:26:10;;;;;;;24.15;14.57;;;1.90;96.40;;;;;;5124937;27;27921;-55
2021/01/04 00:28:54;;;;;;;22.58;14.70;;;1.90;96.40;;;;;;5124154;27;27466;-56
2021/01/04 00:31:42;;;;;;;24.92;15.65;;;1.90;96.40;;;;;;5123934;27;27497;-55
2021/01/04 00:34:48;;;;;;;23.85;14.77;;;1.90;96.40;;;;;;5124627;27;27397;-55
2021/01/04 00:37:53;;;;;;;27.23;15.52;;;1.90;96.40;;;;;;5124406;27;27866;-56
2021/01/04 00:41:00;;;;;;;23.38;15.50;;;1.80;96.40;;;;;;5123999;27;27392;-55
2021/01/04 00:43:50;;;;;;;25.90;15.65;;;1.80;96.40;;;;;;5120452;27;27489;-53
2021/01/04 00:46:42;;;;;;;24.15;14.93;;;1.90;96.40;;;;;;5123775;27;27437;-53
2021/01/04 00:49:29;;;;;;;23.70;15.20;;;1.90;96.40;;;;;;5124433;27;27422;-54
2021/01/04 00:52:45;;;;;;;22.50;14.50;;;1.90;96.40;;;;;;5127159;27;27580;-55
2021/01/04 00:56:08;;;;;;;27.00;15.73;;;1.80;96.40;;;;;;5127506;27;27323;-55
2021/01/04 00:59:30;;;;;;;25.70;15.18;;;1.80;96.40;;;;;;5124540;27;27469;-56
2021/01/04 01:02:38;;;;;;;23.02;14.32;;;1.80;96.40;;;;;;5128021;27;27511;-53
2021/01/04 01:05:35;;;;;;;28.73;15.40;;;1.80;96.40;;;;;;5128042;27;27479;-53
2021/01/04 01:08:31;;;;;;;25.65;16.48;;;1.80;96.40;;;;;;5128069;27;27469;-55
2021/01/04 01:11:18;;;;;;;29.25;16.30;;;1.80;96.40;;;;;;5127185;27;27368;-55
2021/01/04 01:14:29;;;;;;;26.55;15.57;;;1.80;96.50;;;;;;5127575;27;27385;-56
2021/01/04 01:17:44;;;;;;;25.90;16.33;;;1.80;96.50;;;;;;5126754;27;27413;-56
2021/01/04 01:20:28;;;;;;;24.60;16.08;;;1.80;96.40;;;;;;5115356;27;27440;-55
2021/01/04 01:23:12;;;;;;;24.10;14.20;;;1.80;96.50;;;;;;5126704;27;27479;-56
2021/01/04 01:26:13;;;;;;;21.92;14.25;;;1.80;96.50;;;;;;5127692;27;27468;-55
2021/01/04 01:29:18;;;;;;;26.67;15.98;;;1.80;96.50;;;;;;5110331;27;27477;-55
2021/01/04 01:32:27;;;;;;;27.10;16.00;;;1.80;96.60;;;;;;5126598;27;27392;-56
2021/01/04 01:35:37;;;;;;;25.73;14.77;;;1.80;96.50;;;;;;5123786;27;27402;-57
2021/01/04 01:39:13;;;;;;;24.65;14.57;;;1.80;96.60;;;;;;5126745;27;27315;-55
2021/01/04 01:42:26;;;;;;;24.48;14.85;;;1.80;96.50;;;;;;5125948;27;27347;-56
2021/01/04 01:45:47;;;;;;;24.50;15.32;;;1.80;96.40;;;;;;5127405;27;27377;-52
2021/01/04 01:48:53;;;;;;;24.05;15.20;;;1.80;96.50;;;;;;5126246;27;27430;-55
2021/01/04 01:52:16;;;;;;;26.80;15.15;;;1.80;96.50;;;;;;5126173;27;27441;-56
2021/01/04 01:55:17;;;;;;;23.42;15.13;;;1.80;96.50;;;;;;5127243;27;27430;-56
2021/01/04 01:58:04;;;;;;;25.80;15.43;;;1.80;96.50;;;;;;5125959;27;27374;-55
2021/01/04 02:01:28;;;;;;;28.08;16.45;;;1.70;96.40;;;;;;5123968;27;27366;-54
2021/01/04 02:04:29;;;;;;;25.83;15.35;;;1.80;96.50;;;;;;5126191;27;27619;-53
2021/01/04 02:07:47;;;;;;;27.02;16.38;;;1.80;96.50;;;;;;5122683;27;27414;-55
2021/01/04 02:10:37;;;;;;;23.95;15.18;;;1.80;96.50;;;;;;5126694;27;27363;-56
2021/01/04 02:13:36;;;;;;;27.27;16.58;;;1.70;96.50;;;;;;5125876;27;27426;-55
2021/01/04 02:16:27;;;;;;;25.92;15.27;;;1.70;96.50;;;;;;5113178;27;27430;-55
2021/01/04 02:19:28;;;;;;;27.52;16.65;;;1.80;96.50;;;;;;5126197;27;27473;-54
2021/01/04 02:22:33;;;;;;;27.40;16.83;;;1.70;96.60;;;;;;5125774;27;27430;-55
2021/01/04 02:25:18;;;;;;;24.65;15.60;;;1.80;96.60;;;;;;5126007;27;27327;-56
2021/01/04 02:28:05;;;;;;;23.38;15.45;;;1.70;96.60;;;;;;5126648;27;27401;-55
2021/01/04 02:30:50;;;;;;;25.92;16.08;;;1.70;96.60;;;;;;5126615;27;27430;-54
2021/01/04 02:33:35;;;;;;;24.77;15.48;;;1.80;96.60;;;;;;5110820;27;27439;-56
2021/01/04 02:36:20;;;;;;;25.63;16.50;;;1.80;96.60;;;;;;5125999;27;27589;-53
2021/01/04 02:39:14;;;;;;;26.63;16.38;;;1.80;96.60;;;;;;5107691;27;27860;-56
2021/01/04 02:42:17;;;;;;;27.85;17.17;;;1.80;96.60;;;;;;5126188;27;27363;-54
2021/01/04 02:45:09;;;;;;;26.92;16.25;;;1.80;96.60;;;;;;5126165;27;27347;-55
2021/01/04 02:47:54;;;;;;;22.88;14.98;;;1.80;96.60;;;;;;5125582;27;27485;-54
2021/01/04 02:51:17;;;;;;;26.88;16.52;;;1.80;96.60;;;;;;5126230;27;27438;-56
2021/01/04 02:54:04;;;;;;;28.60;16.63;;;1.80;96.60;;;;;;5126206;27;27513;-54
2021/01/04 02:57:16;;;;;;;27.52;17.00;;;1.80;96.60;;;;;;5126070;27;27430;-54
2021/01/04 03:00:01;;;;;;;29.50;16.10;;;1.80;96.60;;;;;;5126186;27;27412;-55
2021/01/04 03:02:47;;;;;;;29.75;17.08;;;1.80;96.60;;;;;;5125093;27;27494;-54
2021/01/04 03:05:33;;;;;;;28.35;16.80;;;1.80;96.60;;;;;;5125791;27;27457;-52
2021/01/04 03:08:18;;;;;;;27.65;16.63;;;1.80;96.50;;;;;;5126086;27;27477;-54
2021/01/04 03:11:08;;;;;;;29.33;17.98;;;1.80;96.60;;;;;;5121919;27;27462;-55
2021/01/04 03:13:55;;;;;;;30.30;16.98;;;1.70;96.60;;;;;;5124022;27;27401;-55
2021/01/04 03:16:55;;;;;;;29.85;17.50;;;1.70;96.60;;;;;;5125024;27;27648;-51
2021/01/04 03:19:41;;;;;;;27.45;16.83;;;1.70;96.50;;;;;;5125614;27;27418;-54
2021/01/04 03:22:25;;;;;;;30.92;17.35;;;1.70;96.50;;;;;;5124846;27;27393;-56
2021/01/04 03:25:28;;;;;;;32.65;19.27;;;1.70;96.50;;;;;;5124965;27;27323;-55
2021/01/04 03:28:46;;;;;;;27.67;17.33;;;1.70;96.60;;;;;;5125232;27;27398;-56
2021/01/04 03:31:31;;;;;;;31.52;18.42;;;1.70;96.50;;;;;;5124896;27;27354;-56
2021/01/04 03:34:15;;;;;;;32.15;18.95;;;1.70;96.60;;;;;;5125703;27;27383;-55
2021/01/04 03:36:59;;;;;;;30.05;18.27;;;1.70;96.60;;;;;;5124631;27;27591;-55
2021/01/04 03:39:44;;;;;;;31.67;17.65;;;1.70;96.60;;;;;;5125246;27;27485;-56
2021/01/04 03:42:29;;;;;;;27.88;17.90;;;1.80;96.60;;;;;;5125610;27;27446;-53
2021/01/04 03:45:14;;;;;;;29.63;17.60;;;1.70;96.60;;;;;;5125482;27;27484;-55
2021/01/04 03:47:59;;;;;;;31.38;17.83;;;1.80;96.50;;;;;;5125087;27;27557;-55
2021/01/04 03:50:43;;;;;;;34.88;19.92;;;1.70;96.40;;;;;;5125059;27;27468;-52
2021/01/04 03:53:27;;;;;;;31.08;18.55;;;1.70;96.40;;;;;;5125126;27;27417;-54
2021/01/04 03:56:16;;;;;;;33.05;19.15;;;1.70;96.50;;;;;;5124951;27;27453;-53
2021/01/04 03:59:00;;;;;;;34.85;20.05;;;1.70;96.40;;;;;;5125036;27;27433;-56
2021/01/04 04:01:54;;;;;;;31.13;19.17;;;1.70;96.40;;;;;;5125415;27;27419;-55
2021/01/04 04:04:40;;;;;;;29.80;18.55;;;1.70;96.50;;;;;;5125310;27;27453;-55
2021/01/04 04:07:25;;;;;;;31.25;18.80;;;1.70;96.50;;;;;;5124916;27;27415;-53
2021/01/04 04:10:10;;;;;;;27.85;18.05;;;1.70;96.50;;;;;;5124822;27;27872;-54
2021/01/04 04:12:55;;;;;;;33.60;19.02;;;1.70;96.60;;;;;;5125069;27;27471;-47
2021/01/04 04:15:39;;;;;;;35.13;19.88;;;1.70;96.60;;;;;;5125159;27;27422;-54
2021/01/04 04:18:24;;;;;;;36.80;19.63;;;1.70;96.60;;;;;;5124872;27;27425;-53
2021/01/04 04:21:12;;;;;;;33.17;19.15;;;1.70;96.60;;;;;;5124749;27;27454;-54
2021/01/04 04:23:57;;;;;;;32.53;19.08;;;1.70;96.60;;;;;;5124554;27;27414;-54
2021/01/04 04:26:42;;;;;;;35.53;20.13;;;1.70;96.60;;;;;;5127541;27;27318;-55
2021/01/04 04:29:26;;;;;;;34.08;20.95;;;1.70;96.50;;;;;;5128337;27;27336;-55
2021/01/04 04:32:11;;;;;;;35.75;19.75;;;1.70;96.50;;;;;;5128544;27;27327;-53
2021/01/04 04:34:55;;;;;;;34.42;19.67;;;1.70;96.50;;;;;;5127828;27;27405;-47
2021/01/04 04:37:43;;;;;;;34.10;18.88;;;1.70;96.50;;;;;;5128371;27;27409;-56
2021/01/04 04:40:32;;;;;;;31.08;18.80;;;1.70;96.50;;;;;;5128382;27;27402;-52
2021/01/04 04:43:30;;;;;;;31.35;18.95;;;1.70;96.50;;;;;;5128245;27;27590;-54
2021/01/04 04:46:43;;;;;;;34.47;19.33;;;1.70;96.90;;;;;;5128233;27;27469;-53
2021/01/04 04:49:57;;;;;;;36.75;21.17;;;1.70;96.60;;;;;;5128108;27;27478;-56
2021/01/04 04:52:56;;;;;;;34.55;20.00;;;1.70;96.60;;;;;;5125949;27;27443;-55
2021/01/04 04:56:06;;;;;;;36.30;19.08;;;1.70;96.60;;;;;;5127085;27;27397;-55
2021/01/04 04:59:10;;;;;;;32.22;19.15;;;1.70;96.60;;;;;;5126754;27;27599;-56
2021/01/04 05:02:16;;;;;;;31.95;19.40;;;1.70;96.60;;;;;;5128085;27;27355;-55
2021/01/04 05:05:32;;;;;;;33.92;19.92;;;1.70;96.60;;;;;;5126962;27;27530;-55
2021/01/04 05:09:05;;;;;;;30.42;18.00;;;1.70;96.60;;;;;;5124286;27;27445;-54
2021/01/04 05:12:03;;;;;;;31.55;19.25;;;1.70;96.60;;;;;;5125962;27;27386;-54
2021/01/04 05:14:56;;;;;;;37.13;19.92;;;1.70;96.90;;;;;;5127975;27;27445;-56
2021/01/04 05:17:59;;;;;;;36.70;20.95;;;1.70;96.60;;;;;;5127103;27;27458;-48
2021/01/04 05:20:52;;;;;;;31.42;18.80;;;1.70;96.60;;;;;;5127735;27;27875;-55
2021/01/04 05:24:10;;;;;;;33.42;20.25;;;1.70;96.60;;;;;;5127726;27;27413;-55
2021/01/04 05:27:17;;;;;;;35.30;20.48;;;1.70;96.60;;;;;;5126606;27;27455;-56
2021/01/04 05:30:17;;;;;;;31.60;20.08;;;1.70;96.60;;;;;;5123312;27;27410;-56
2021/01/04 05:33:26;;;;;;;34.55;20.58;;;1.70;96.60;;;;;;5126818;27;27329;-54
2021/01/04 05:36:46;;;;;;;36.10;19.52;;;1.70;96.60;;;;;;5126808;27;27420;-55
2021/01/04 05:40:02;;;;;;;33.90;20.30;;;1.70;96.60;;;;;;5124233;27;27316;-55
2021/01/04 05:43:07;;;;;;;34.20;19.15;;;1.70;96.60;;;;;;5127443;27;27373;-53
2021/01/04 05:45:57;;;;;;;34.20;20.23;;;1.70;96.60;;;;;;5126237;27;27331;-55
2021/01/04 05:48:45;;;;;;;35.25;20.20;;;1.70;96.70;;;;;;5127028;27;27484;-56
2021/01/04 05:51:36;;;;;;;36.45;20.45;;;1.70;96.70;;;;;;5127280;27;27516;-56
2021/01/04 05:54:32;;;;;;;34.60;20.52;;;1.70;96.60;;;;;;5126941;27;27461;-54
2021/01/04 05:57:17;;;;;;;34.25;19.27;;;1.70;96.60;;;;;;5127075;27;27491;-55
2021/01/04 06:00:02;;;;;;;32.38;18.45;;;1.70;96.70;;;;;;5123807;27;27417;-54
2021/01/04 06:03:13;;;;;;;31.35;18.02;;;1.70;96.70;;;;;;5126852;27;27500;-53
2021/01/04 06:06:07;;;;;;;32.25;19.65;;;1.70;96.60;;;;;;5127140;27;27327;-54
2021/01/04 06:09:13;;;;;;;33.25;20.08;;;1.70;96.60;;;;;;5126688;27;27323;-55
2021/01/04 06:12:01;;;;;;;32.63;19.60;;;1.70;96.60;;;;;;5126446;27;27577;-55
2021/01/04 06:14:55;;;;;;;33.28;18.55;;;1.70;96.60;;;;;;5126968;27;27397;-55
2021/01/04 06:17:43;;;;;;;32.13;18.95;;;1.70;96.60;;;;;;5125771;27;27397;-55
2021/01/04 06:20:53;;;;;;;31.58;19.25;;;1.70;96.60;;;;;;5126768;27;27883;-55
2021/01/04 06:23:37;;;;;;;35.92;19.40;;;1.70;96.60;;;;;;5126036;27;27315;-46
2021/01/04 06:26:23;;;;;;;31.92;19.58;;;1.70;96.60;;;;;;5123120;27;27324;-52
2021/01/04 06:29:08;;;;;;;34.50;18.92;;;1.70;96.60;;;;;;5126713;27;27319;-52
2021/01/04 06:31:53;;;;;;;33.58;18.13;;;1.70;96.60;;;;;;5126546;27;27319;-56
2021/01/04 06:34:37;;;;;;;33.50;19.40;;;1.70;96.60;;;;;;5111465;27;27331;-54
2021/01/04 06:37:25;;;;;;;33.85;19.58;;;1.70;96.60;;;;;;5125464;27;27331;-54
2021/01/04 06:40:22;;;;;;;32.05;18.70;;;1.70;96.60;;;;;;5125809;27;27381;-54
2021/01/04 06:43:23;;;;;;;36.03;18.80;;;1.70;96.60;;;;;;5126408;27;27945;-52
2021/01/04 06:46:32;;;;;;;34.47;19.13;;;1.70;96.60;;;;;;5123129;27;27400;-51
2021/01/04 06:49:19;;;;;;;32.58;19.38;;;1.70;96.60;;;;;;5125509;27;27417;-55
2021/01/04 06:52:28;;;;;;;31.48;18.30;;;1.70;96.50;;;;;;5126261;27;27397;-54
2021/01/04 06:56:14;;;;;;;33.83;19.35;;;1.70;96.60;;;;;;5125989;27;27335;-55
2021/01/04 06:59:14;;;;;;;33.08;19.27;;;1.70;96.60;;;;;;5123897;27;27419;-53
2021/01/04 07:02:24;;;;;;;34.97;19.52;;;1.70;96.60;;;;;;5124545;27;27454;-55
2021/01/04 07:05:18;;;;;;;38.15;20.42;;;1.70;96.60;;;;;;5123723;27;27379;-54
2021/01/04 07:08:11;;;;;;;33.85;18.88;;;1.70;96.60;;;;;;5124384;27;27930;-54
2021/01/04 07:11:18;;;;;;;34.25;19.70;;;1.70;96.60;;;;;;5124180;27;27461;-53
2021/01/04 07:14:20;;;;;;;34.20;18.23;;;1.70;96.60;;;;;;5124033;27;27473;-53
2021/01/04 07:17:24;;;;;;;30.70;18.20;;;1.70;96.60;;;;;;5124247;27;27537;-54
2021/01/04 07:20:41;;;;;;;30.13;17.88;;;1.70;96.60;;;;;;5124147;27;27607;-52
2021/01/04 07:23:35;;;;;;;31.55;18.75;;;1.70;96.60;;;;;;5102204;27;27379;-54
2021/01/04 07:26:50;;;;;;;32.60;19.25;;;1.70;96.60;;;;;;5110221;27;27459;-55
2021/01/04 07:29:59;;;;;;;31.67;19.92;;;1.70;96.60;;;;;;5124587;27;27521;-47
2021/01/04 07:33:03;;;;;;;34.88;19.55;;;1.70;96.60;;;;;;5125006;27;27941;-53
2021/01/04 07:36:00;;;;;;;32.00;19.00;;;1.70;96.60;;;;;;5124805;27;27384;-53
2021/01/04 07:39:02;;;;;;;32.15;18.92;;;1.70;96.60;;;;;;5125369;27;27351;-51
2021/01/04 07:41:53;;;;;;;37.65;19.70;;;1.70;96.60;;;;;;5125569;27;27413;-53
2021/01/04 07:45:04;;;;;;;29.67;18.45;;;1.70;96.60;;;;;;5124752;27;27503;-55
2021/01/04 07:47:57;;;;;;;30.75;19.25;;;1.70;96.60;;;;;;5124165;27;27469;-53
2021/01/04 07:51:19;;;;;;;32.75;18.60;;;1.70;96.60;;;;;;5125193;27;27405;-54
2021/01/04 07:54:12;;;;;;;36.25;21.02;;;1.80;96.60;;;;;;5125050;27;27421;-55
2021/01/04 07:57:23;;;;;;;31.63;19.65;;;1.80;96.60;;;;;;5125276;27;27453;-53
2021/01/04 08:00:15;;;;;;;30.92;18.08;;;1.80;96.50;;;;;;5123941;27;27359;-53
2021/01/04 08:03:44;;;;;;;32.67;19.35;;;1.80;96.50;;;;;;5125257;27;27422;-54
2021/01/04 08:06:46;;;;;;;29.80;18.38;;;1.80;96.50;;;;;;5123580;27;27486;-52
2021/01/04 08:10:12;;;;;;;34.33;20.38;;;1.80;96.50;;;;;;5125063;27;27910;-48
2021/01/04 08:12:57;;;;;;;31.25;19.10;;;1.90;96.50;;;;;;5123191;27;27609;-55
2021/01/04 08:16:07;;;;;;;34.10;19.98;;;1.90;96.50;;;;;;5124866;27;27428;-50
2021/01/04 08:18:55;;;;;;;35.00;21.08;;;1.90;96.40;;;;;;5124515;27;27479;-54
2021/01/04 08:21:42;;;;;;;33.40;19.48;;;2.00;96.30;;;;;;5124702;27;27414;-54
2021/01/04 08:24:44;;;;;;;35.78;20.02;;;2.00;96.20;;;;;;5124978;27;27386;-54
2021/01/04 08:27:43;;;;;;;32.80;19.67;;;2.00;96.20;;;;;;5123620;27;27443;-55
2021/01/04 08:30:36;;;;;;;35.63;20.63;;;2.10;96.20;;;;;;5124620;27;27355;-55
2021/01/04 08:33:53;;;;;;;36.25;20.77;;;2.10;96.20;;;;;;5124583;27;27351;-53
2021/01/04 08:36:58;;;;;;;31.52;19.80;;;2.10;96.10;;;;;;5123828;27;27351;-52
2021/01/04 08:39:51;;;;;;;34.40;21.15;;;2.20;96.10;;;;;;5124805;27;27377;-49
2021/01/04 08:42:36;;;;;;;32.78;19.83;;;2.20;96.00;;;;;;5123058;27;27516;-55
2021/01/04 08:45:28;;;;;;;35.92;20.02;;;2.20;95.90;;;;;;5124416;27;27875;-55
2021/01/04 08:48:18;;;;;;;32.95;19.13;;;2.30;95.90;;;;;;5124381;27;27422;-55
2021/01/04 08:51:07;;;;;;;30.67;19.02;;;2.40;95.80;;;;;;5124420;27;27413;-54
2021/01/04 08:54:28;;;;;;;38.28;19.92;;;2.40;95.70;;;;;;5124117;27;27460;-54
2021/01/04 08:57:19;;;;;;;31.80;19.77;;;2.50;95.70;;;;;;5121147;27;27311;-55
2021/01/04 09:00:16;;;;;;;33.33;18.85;;;2.50;95.60;;;;;;5123508;27;27480;-55
2021/01/04 09:03:00;;;;;;;32.42;19.55;;;2.50;95.60;;;;;;5123869;27;27319;-53
2021/01/04 09:05:45;;;;;;;34.72;20.23;;;2.60;95.50;;;;;;5124167;27;27414;-47
2021/01/04 09:08:30;;;;;;;32.33;18.35;;;2.70;95.40;;;;;;5124078;27;27425;-54
2021/01/04 09:11:15;;;;;;;34.78;20.65;;;2.70;95.40;;;;;;5123595;27;27500;-55
2021/01/04 09:14:14;;;;;;;35.38;20.38;;;2.80;95.30;;;;;;5126571;27;27534;-54
2021/01/04 09:16:58;;;;;;;33.72;19.60;;;2.80;95.20;;;;;;5127802;27;27373;-54
2021/01/04 09:19:42;;;;;;;33.45;20.65;;;2.90;95.10;;;;;;5127759;27;28080;-52
2021/01/04 09:22:27;;;;;;;33.03;19.85;;;2.90;95.00;;;;;;5126557;27;27328;-55
2021/01/04 09:25:43;;;;;;;38.22;21.67;;;3.00;95.00;;;;;;5127065;27;27327;-54
2021/01/04 09:28:43;;;;;;;33.85;19.92;;;3.00;95.00;;;;;;5124101;27;26921;-55
2021/01/04 09:31:27;;;;;;;33.60;19.50;;;3.10;95.00;;;;;;5126766;27;27414;-53
2021/01/04 09:34:15;;;;;;;34.58;20.85;;;3.20;94.90;;;;;;5127236;27;27432;-55
2021/01/04 09:37:13;;;;;;;36.47;21.45;;;3.20;94.80;;;;;;5126897;27;27479;-55
2021/01/04 09:40:04;;;;;;;36.55;20.85;;;3.30;94.80;;;;;;5126937;27;27406;-55
2021/01/04 09:42:49;;;;;;;32.53;21.25;;;3.30;94.70;;;;;;5127187;27;27437;-56
2021/01/04 09:45:34;;;;;;;32.25;19.50;;;3.30;94.50;;;;;;5123738;27;27505;-54
2021/01/04 09:48:31;;;;;;;35.42;21.13;;;3.40;94.60;;;;;;5127347;27;27497;-55
2021/01/04 09:51:18;;;;;;;37.13;20.52;;;3.40;94.40;;;;;;5125461;27;27362;-53
2021/01/04 09:54:04;;;;;;;36.42;20.80;;;3.50;94.40;;;;;;5126955;27;27422;-52
2021/01/04 09:56:49;;;;;;;41.28;21.95;;;3.60;94.30;;;;;;5126186;27;27386;-54
2021/01/04 09:59:41;;;;;;;34.03;19.83;;;3.60;94.10;;;;;;5108381;27;27409;-54
2021/01/04 10:02:28;;;;;;;36.33;20.55;;;3.70;93.90;;;;;;5127102;27;27312;-47
2021/01/04 10:05:14;;;;;;;38.85;20.50;;;3.70;93.90;;;;;;5126765;27;27380;-53
2021/01/04 10:07:59;;;;;;;31.15;19.40;;;3.80;93.90;;;;;;5127071;27;27312;-53
2021/01/04 10:10:58;;;;;;;35.95;21.55;;;3.80;93.80;;;;;;5126057;27;27401;-53
2021/01/04 10:13:42;;;;;;;34.38;19.52;;;3.90;93.80;;;;;;5126656;27;27444;-54
2021/01/04 10:16:28;;;;;;;33.70;19.92;;;3.90;93.60;;;;;;5123282;27;27407;-47
2021/01/04 10:19:52;;;;;;;34.08;19.08;;;4.00;93.60;;;;;;5097093;27;27589;-54
2021/01/04 10:22:39;;;;;;;34.58;19.42;;;4.00;93.40;;;;;;5110258;27;27510;-55
2021/01/04 10:25:45;;;;;;;31.65;18.98;;;4.00;93.40;;;;;;5126716;27;27399;-53
2021/01/04 10:28:31;;;;;;;31.20;19.52;;;4.00;93.40;;;;;;5126418;27;27477;-48
2021/01/04 10:31:24;;;;;;;35.78;20.77;;;4.00;93.20;;;;;;5126714;27;27397;-52
2021/01/04 10:34:11;;;;;;;37.42;20.95;;;4.00;93.40;;;;;;5126454;27;27382;-52
2021/01/04 10:37:01;;;;;;;31.05;19.90;;;4.00;93.30;;;;;;5125766;27;27326;-53
2021/01/04 10:39:45;;;;;;;31.67;19.85;;;4.00;93.30;;;;;;5126499;27;27430;-54
2021/01/04 10:42:30;;;;;;;33.90;20.20;;;4.00;93.30;;;;;;5126261;27;27393;-54
2021/01/04 10:45:19;;;;;;;30.85;19.52;;;4.00;93.50;;;;;;5125886;27;27413;-53
2021/01/04 10:48:15;;;;;;;30.40;18.67;;;4.10;93.50;;;;;;5126206;27;27460;-53
2021/01/04 10:51:02;;;;;;;33.60;19.42;;;4.10;93.40;;;;;;5126054;27;27409;-52
2021/01/04 10:53:46;;;;;;;29.50;18.73;;;4.20;93.40;;;;;;5126022;27;27477;-54
2021/01/04 10:56:38;;;;;;;30.95;18.70;;;4.20;93.20;;;;;;5126360;27;27401;-51
2021/01/04 10:59:34;;;;;;;33.83;19.42;;;4.30;93.10;;;;;;5121665;27;27516;-55
2021/01/04 11:02:19;;;;;;;33.92;20.52;;;4.40;92.90;;;;;;5126176;27;27433;-54
2021/01/04 11:05:04;;;;;;;29.58;18.50;;;4.40;92.80;;;;;;5122061;27;27474;-55
2021/01/04 11:07:48;;;;;;;29.10;18.95;;;4.50;92.80;;;;;;5126174;27;27508;-54
2021/01/04 11:10:33;;;;;;;30.98;18.67;;;4.50;92.70;;;;;;5125792;27;27439;-54
2021/01/04 11:13:28;;;;;;;27.70;16.88;;;4.50;92.60;;;;;;5125765;27;27487;-54
2021/01/04 11:16:14;;;;;;;30.10;18.27;;;4.60;92.60;;;;;;5125652;27;27476;-54
2021/01/04 11:18:59;;;;;;;31.90;18.38;;;4.60;92.50;;;;;;5125453;27;27410;-55
2021/01/04 11:21:44;;;;;;;27.85;17.88;;;4.60;92.50;;;;;;5125592;27;27480;-54
2021/01/04 11:24:29;;;;;;;31.52;18.60;;;4.70;92.50;;;;;;5125830;27;27469;-55
2021/01/04 11:27:14;;;;;;;30.38;17.98;;;4.70;92.40;;;;;;5125810;27;27446;-55
2021/01/04 11:29:59;;;;;;;33.25;18.48;;;4.70;92.40;;;;;;5125860;27;27460;-56
2021/01/04 11:32:43;;;;;;;30.70;17.40;;;4.70;92.40;;;;;;5125438;27;27418;-55
2021/01/04 11:35:28;;;;;;;29.10;17.60;;;4.70;92.30;;;;;;5124125;27;27459;-53
2021/01/04 11:38:13;;;;;;;26.95;17.08;;;4.70;92.30;;;;;;5124947;27;27408;-54
2021/01/04 11:40:57;;;;;;;26.77;16.88;;;4.70;92.20;;;;;;5125634;27;27401;-55
2021/01/04 11:43:42;;;;;;;26.40;16.58;;;4.70;92.30;;;;;;5125609;27;27436;-56
2021/01/04 11:46:27;;;;;;;30.10;17.98;;;4.80;92.30;;;;;;5125222;27;27416;-55
2021/01/04 11:49:12;;;;;;;27.45;17.23;;;4.70;92.20;;;;;;5125334;27;27521;-55
2021/01/04 11:51:56;;;;;;;33.50;17.75;;;4.70;92.10;;;;;;5125437;27;27461;-55
2021/01/04 11:54:41;;;;;;;27.27;17.10;;;4.70;92.20;;;;;;5124702;27;27434;-49
2021/01/04 11:57:26;;;;;;;27.00;17.00;;;4.70;92.20;;;;;;5125254;27;27973;-55
2021/01/04 12:00:11;;;;;;;28.65;16.38;;;4.70;92.20;;;;;;5125525;27;27585;-55
2021/01/04 12:02:56;;;;;;;28.02;16.90;;;4.70;92.10;;;;;;5125380;27;27441;-55
2021/01/04 12:05:41;;;;;;;27.40;17.17;;;4.70;92.10;;;;;;5120922;27;27465;-55
2021/01/04 12:08:25;;;;;;;26.88;16.08;;;4.60;92.00;;;;;;5125214;27;27350;-55
2021/01/04 12:11:09;;;;;;;28.88;15.80;;;4.60;91.90;;;;;;5124556;27;27401;-50
2021/01/04 12:13:54;;;;;;;26.67;15.88;;;4.60;92.00;;;;;;5125018;27;27380;-52
2021/01/04 12:16:39;;;;;;;24.65;15.77;;;4.60;92.20;;;;;;5125242;27;27343;-47
2021/01/04 12:19:23;;;;;;;26.63;16.10;;;4.50;92.10;;;;;;5109336;27;27400;-53
2021/01/04 12:22:10;;;;;;;25.42;15.00;;;4.50;92.30;;;;;;5125122;27;27385;-54
2021/01/04 12:24:55;;;;;;;24.73;16.00;;;4.40;92.20;;;;;;5124838;27;27436;-53
2021/01/04 12:27:39;;;;;;;23.80;15.27;;;4.40;92.10;;;;;;5125067;27;27369;-53
2021/01/04 12:30:24;;;;;;;23.77;15.32;;;4.30;92.20;;;;;;5120855;27;27373;-54
2021/01/04 12:33:09;;;;;;;21.88;14.15;;;4.20;92.30;;;;;;5124881;27;27348;-53
2021/01/04 12:35:53;;;;;;;26.40;15.73;;;4.20;92.30;;;;;;5123318;27;27405;-54
2021/01/04 12:38:38;;;;;;;25.58;15.25;;;4.10;92.40;;;;;;5124522;27;27366;-54
2021/01/04 12:41:22;;;;;;;24.15;14.70;;;4.10;92.60;;;;;;5124498;27;27336;-50
2021/01/04 12:44:08;;;;;;;23.30;14.82;;;4.00;92.80;;;;;;5124572;27;27425;-53
2021/01/04 12:46:53;;;;;;;24.00;14.68;;;3.90;93.00;;;;;;5126121;27;27372;-51
2021/01/04 12:49:38;;;;;;;23.92;15.38;;;3.90;93.30;;;;;;5128070;27;27389;-53
2021/01/04 12:52:22;;;;;;;20.30;13.90;;;3.90;93.30;;;;;;5128015;27;27402;-51
2021/01/04 12:55:08;;;;;;;22.50;15.27;;;3.80;93.00;;;;;;5127998;27;27420;-52
2021/01/04 12:57:52;;;;;;;26.40;15.75;;;3.80;93.00;;;;;;5124824;27;27390;-54
2021/01/04 13:00:40;;;;;;;24.63;14.98;;;3.80;93.10;;;;;;5128228;27;27378;-54
2021/01/04 13:03:24;;;;;;;23.40;14.45;;;3.70;93.30;;;;;;5127912;27;27396;-52
2021/01/04 13:06:09;;;;;;;24.20;15.05;;;3.70;93.50;;;;;;5128085;27;27320;-54
2021/01/04 13:08:54;;;;;;;23.17;14.93;;;3.70;93.30;;;;;;5128160;27;27346;-46
2021/01/04 13:11:38;;;;;;;24.83;14.93;;;3.70;93.10;;;;;;5128067;27;27343;-48
2021/01/04 13:14:23;;;;;;;25.92;15.52;;;3.60;93.00;;;;;;5126996;27;27397;-53
2021/01/04 13:17:07;;;;;;;28.58;15.98;;;3.70;93.00;;;;;;5127644;27;27401;-52
2021/01/04 13:19:52;;;;;;;23.35;14.75;;;3.70;93.10;;;;;;5127989;27;27397;-49
2021/01/04 13:22:37;;;;;;;29.55;16.35;;;3.60;93.10;;;;;;5127878;27;27315;-54
2021/01/04 13:25:21;;;;;;;25.48;15.25;;;3.60;93.00;;;;;;5127085;27;27311;-51
2021/01/04 13:28:06;;;;;;;25.73;16.98;;;3.60;93.10;;;;;;5127454;27;27355;-51
2021/01/04 13:30:51;;;;;;;29.27;17.63;;;3.50;93.00;;;;;;5126688;27;27352;-53
2021/01/04 13:33:36;;;;;;;25.20;16.70;;;3.50;92.80;;;;;;5127650;27;27357;-53
2021/01/04 13:36:21;;;;;;;28.17;16.88;;;3.50;92.90;;;;;;5126873;27;27838;-52
2021/01/04 13:39:06;;;;;;;30.38;18.30;;;3.50;93.00;;;;;;5127405;27;27496;-51
2021/01/04 13:41:52;;;;;;;28.77;18.02;;;3.50;92.90;;;;;;5127713;27;27445;-55
2021/01/04 13:44:39;;;;;;;31.58;17.65;;;3.50;92.90;;;;;;5126773;27;27392;-53
2021/01/04 13:47:23;;;;;;;28.70;17.63;;;3.40;92.90;;;;;;5127130;27;27412;-53
2021/01/04 13:50:10;;;;;;;29.83;18.17;;;3.40;92.90;;;;;;5127061;27;27348;-53
2021/01/04 13:52:55;;;;;;;29.25;17.40;;;3.40;93.00;;;;;;5127101;27;27391;-54
2021/01/04 13:55:40;;;;;;;33.00;17.88;;;3.30;93.00;;;;;;5123984;27;27383;-53
2021/01/04 13:58:24;;;;;;;30.13;18.85;;;3.40;93.10;;;;;;5125916;27;27393;-52
2021/01/04 14:01:09;;;;;;;28.90;18.00;;;3.30;93.20;;;;;;5126948;27;27379;-50
2021/01/04 14:03:54;;;;;;;33.75;19.00;;;3.30;93.20;;;;;;5127198;27;27372;-50
2021/01/04 14:06:43;;;;;;;31.38;18.83;;;3.30;93.20;;;;;;5126875;27;27377;-54
2021/01/04 14:09:28;;;;;;;32.67;18.52;;;3.30;93.20;;;;;;5123759;27;27835;-50
2021/01/04 14:12:13;;;;;;;33.80;18.63;;;3.20;93.30;;;;;;5126252;27;27483;-53
2021/01/04 14:14:57;;;;;;;34.30;19.02;;;3.20;93.20;;;;;;5127134;27;27410;-50
2021/01/04 14:17:43;;;;;;;38.13;19.15;;;3.20;93.40;;;;;;5126600;27;27481;-54
2021/01/04 14:20:27;;;;;;;39.38;21.33;;;3.10;93.60;;;;;;5126884;27;28007;-47
2021/01/04 14:23:13;;;;;;;36.58;20.48;;;3.10;93.60;;;;;;5126379;27;27499;-51
2021/01/04 14:25:57;;;;;;;33.17;19.00;;;3.10;93.60;;;;;;5123542;27;27404;-54
2021/01/04 14:28:42;;;;;;;35.33;19.90;;;3.10;93.60;;;;;;5126815;27;27477;-55
2021/01/04 14:31:36;;;;;;;34.75;19.50;;;3.10;93.60;;;;;;5126709;27;27483;-53
2021/01/04 14:34:21;;;;;;;36.70;20.60;;;3.10;93.60;;;;;;5123126;27;27347;-55
2021/01/04 14:37:05;;;;;;;31.45;18.85;;;3.00;93.60;;;;;;5125019;27;27382;-51
2021/01/04 14:39:50;;;;;;;29.88;17.52;;;3.00;93.60;;;;;;5126014;27;27385;-51
2021/01/04 14:42:34;;;;;;;36.78;19.38;;;3.00;93.60;;;;;;5126310;27;27994;-51
2021/01/04 14:45:19;;;;;;;35.97;19.63;;;3.00;93.70;;;;;;5126499;27;27404;-56
2021/01/04 14:48:05;;;;;;;33.70;19.15;;;2.90;93.60;;;;;;5126266;27;27329;-50
2021/01/04 14:50:50;;;;;;;33.40;19.30;;;2.90;93.60;;;;;;5125695;27;27662;-52